Time;durP1;ratioP1;P1;durP2;ratioP2;P2;SDS_P1;SDS_P2;PMS_P1;PMS_P2;Temp;Humidity;BMP_temperature;BMP_pressure;BME280_temperature;BME280_humidity;BME280_pressure;Samples;Min_cycle;Max_cycle;Signal;HPM_P1;HPM_P2
2022/10/25 00:01:26;;;;;;;18.12;6.72;;;;;;;;;;5307055;27;20029;-77
2022/10/25 00:03:52;;;;;;;17.65;6.75;;;;;;;;;;5327175;27;20283;-77
2022/10/25 00:06:28;;;;;;;15.90;6.90;;;;;;;;;;5327557;27;20034;-77
2022/10/25 00:08:53;;;;;;;19.83;7.65;;;;;;;;;;5327484;27;20346;-77
2022/10/25 00:11:23;;;;;;;24.67;7.90;;;;;;;;;;5326533;27;20007;-78
2022/10/25 00:13:49;;;;;;;17.62;6.30;;;;;;;;;;5327971;27;20322;-77
2022/10/25 00:16:16;;;;;;;22.05;8.15;;;;;;;;;;5326485;27;20021;-77
2022/10/25 00:18:43;;;;;;;18.90;7.20;;;;;;;;;;5327058;27;20370;-78
2022/10/25 00:21:08;;;;;;;17.25;7.12;;;;;;;;;;5306689;27;20011;-78
2022/10/25 00:23:44;;;;;;;21.98;5.93;;;;;;;;;;5326417;27;20330;-77
2022/10/25 00:26:10;;;;;;;13.40;6.00;;;;;;;;;;5327465;27;19985;-78
2022/10/25 00:28:36;;;;;;;18.90;5.47;;;;;;;;;;5327875;27;20330;-78
2022/10/25 00:31:05;;;;;;;13.62;4.18;;;;;;;;;;5326613;27;20048;-78
2022/10/25 00:36:34;;;;;;;16.23;4.60;;;;;;;;;;5325717;27;20083;-77
2022/10/25 00:39:32;;;;;;;;;;;;;;;;;;;;;
2022/10/25 00:42:16;;;;;;;14.48;4.43;;;;;;;;;;5319045;27;20311;-77
2022/10/25 00:45:21;;;;;;;18.83;4.18;;;;;;;;;;5327153;27;20352;-78
2022/10/25 00:50:59;;;;;;;18.73;4.90;;;;;;;;;;5326767;27;20015;-79
2022/10/25 00:53:31;;;;;;;21.90;5.25;;;;;;;;;;5326174;27;20001;-78
2022/10/25 00:56:15;;;;;;;;;;;;;;;;;;;;;
2022/10/25 00:58:43;;;;;;;14.35;3.62;;;;;;;;;;5327371;27;20322;-78
2022/10/25 01:01:18;;;;;;;23.77;4.87;;;;;;;;;;5306177;27;20020;-78
2022/10/25 01:04:12;;;;;;;14.77;4.62;;;;;;;;;;5325206;27;20030;-78
2022/10/25 01:06:42;;;;;;;17.83;5.03;;;;;;;;;;5326499;27;20028;-78
2022/10/25 01:09:17;;;;;;;22.98;4.47;;;;;;;;;;5325988;27;20463;-78
2022/10/25 01:11:44;;;;;;;19.75;3.70;;;;;;;;;;5327634;27;19993;-78
2022/10/25 01:14:35;;;;;;;23.87;4.47;;;;;;;;;;5326902;27;20082;-78
2022/10/25 01:17:15;;;;;;;18.62;3.35;;;;;;;;;;5324416;27;20050;-77
2022/10/25 01:19:59;;;;;;;16.75;3.80;;;;;;;;;;5326668;27;20009;-78
2022/10/25 01:22:44;;;;;;;20.25;4.75;;;;;;;;;;5306232;27;20034;-78
2022/10/25 01:25:28;;;;;;;16.50;5.00;;;;;;;;;;5328390;27;19992;-77
2022/10/25 01:27:58;;;;;;;16.75;4.95;;;;;;;;;;5326960;27;20056;-77
2022/10/25 01:30:34;;;;;;;16.90;4.47;;;;;;;;;;5326478;27;20004;-78
2022/10/25 01:33:48;;;;;;;21.17;6.00;;;;;;;;;;5326927;27;19995;-78
2022/10/25 01:36:20;;;;;;;15.13;4.18;;;;;;;;;;5326833;27;20045;-78
2022/10/25 01:48:06;;;;;;;23.42;5.95;;;;;;;;;;5326525;27;20321;-78
2022/10/25 01:50:35;;;;;;;33.50;5.50;;;;;;;;;;5329891;27;20005;-78
2022/10/25 01:53:06;;;;;;;28.05;6.00;;;;;;;;;;5327907;27;20021;-78
2022/10/25 01:55:35;;;;;;;24.48;6.18;;;;;;;;;;5308078;27;20015;-78
2022/10/25 01:58:33;;;;;;;23.62;4.82;;;;;;;;;;5327066;27;20001;-78
2022/10/25 02:03:47;;;;;;;29.45;5.10;;;;;;;;;;5327823;27;19914;-79
2022/10/25 02:06:31;;;;;;;24.80;4.95;;;;;;;;;;5307146;27;20000;-79
2022/10/25 02:09:23;;;;;;;21.80;5.90;;;;;;;;;;5327586;27;20065;-79
2022/10/25 02:11:51;;;;;;;25.42;6.65;;;;;;;;;;5324884;27;20393;-79
2022/10/25 02:14:54;;;;;;;20.58;4.78;;;;;;;;;;5327761;27;20031;-79
2022/10/25 02:17:26;;;;;;;19.00;6.03;;;;;;;;;;5301485;27;20009;-79
2022/10/25 02:20:17;;;;;;;25.40;5.37;;;;;;;;;;5327846;27;20001;-79
2022/10/25 02:23:27;;;;;;;17.15;4.12;;;;;;;;;;5216548;27;20006;-79
2022/10/25 02:26:34;;;;;;;21.30;5.03;;;;;;;;;;5133604;28;20003;-78
2022/10/25 02:32:06;;;;;;;24.92;5.05;;;;;;;;;;5132595;27;20023;-79
2022/10/25 02:34:34;;;;;;;22.77;5.90;;;;;;;;;;5278067;27;20387;-79
2022/10/25 02:40:35;;;;;;;30.45;4.85;;;;;;;;;;5239035;27;20037;-79
2022/10/25 02:43:03;;;;;;;27.35;5.35;;;;;;;;;;5237839;27;20009;-79
2022/10/25 02:45:35;;;;;;;30.10;6.22;;;;;;;;;;5314086;27;20045;-79
2022/10/25 02:48:03;;;;;;;21.05;4.35;;;;;;;;;;5328203;27;20036;-79
2022/10/25 02:50:28;;;;;;;19.08;5.43;;;;;;;;;;5327399;27;20018;-79
2022/10/25 02:53:04;;;;;;;29.10;5.30;;;;;;;;;;5327394;27;20005;-79
2022/10/25 02:55:39;;;;;;;24.83;5.07;;;;;;;;;;5327556;27;20000;-78
2022/10/25 02:58:05;;;;;;;26.00;4.93;;;;;;;;;;5327451;27;19989;-78
2022/10/25 03:01:00;;;;;;;19.70;5.15;;;;;;;;;;5306337;27;20569;-79
2022/10/25 03:03:26;;;;;;;31.15;5.32;;;;;;;;;;5285694;27;20025;-79
2022/10/25 03:05:52;;;;;;;19.83;4.57;;;;;;;;;;5304829;27;20009;-78
2022/10/25 03:08:27;;;;;;;23.80;4.80;;;;;;;;;;5304936;27;20311;-78
2022/10/25 03:14:42;;;;;;;;;;;;;;;;;;;;;
2022/10/25 03:27:09;;;;;;;22.55;4.57;;;;;;;;;;5111926;28;20012;-78
2022/10/25 03:29:35;;;;;;;27.52;4.65;;;;;;;;;;5115680;27;20012;-78
2022/10/25 03:32:04;;;;;;;24.73;5.40;;;;;;;;;;5279841;27;20015;-78
2022/10/25 03:34:38;;;;;;;18.80;4.43;;;;;;;;;;5305322;27;20009;-78
2022/10/25 03:37:06;;;;;;;28.20;4.65;;;;;;;;;;5285602;27;20000;-78
2022/10/25 03:39:59;;;;;;;;;;;;;;;;;;;;;
2022/10/25 03:43:00;;;;;;;;;;;;;;;;;;;;;
2022/10/25 03:45:38;;;;;;;26.83;5.68;;;;;;;;;;5304782;27;20031;-78
2022/10/25 03:51:46;;;;;;;26.05;5.18;;;;;;;;;;5289756;27;20012;-78
2022/10/25 03:54:22;;;;;;;22.17;5.22;;;;;;;;;;5305403;27;20026;-78
2022/10/25 04:00:16;;;;;;;23.58;6.03;;;;;;;;;;5305249;27;20429;-79
2022/10/25 04:02:51;;;;;;;23.62;4.80;;;;;;;;;;5284997;27;20024;-79
2022/10/25 04:08:11;;;;;;;20.85;6.18;;;;;;;;;;5305126;27;20044;-79
2022/10/25 04:10:47;;;;;;;25.00;5.35;;;;;;;;;;5305124;27;20048;-79
2022/10/25 04:13:15;;;;;;;27.40;6.10;;;;;;;;;;5305372;27;19993;-79
2022/10/25 04:19:19;;;;;;;32.60;6.28;;;;;;;;;;5200224;27;20036;-79
2022/10/25 04:22:03;;;;;;;27.95;6.80;;;;;;;;;;5210057;27;20003;-79
2022/10/25 04:24:40;;;;;;;28.95;6.93;;;;;;;;;;5290794;27;20015;-79
2022/10/25 04:27:08;;;;;;;26.62;7.45;;;;;;;;;;5286061;27;19989;-79
2022/10/25 04:29:45;;;;;;;28.87;7.55;;;;;;;;;;5304216;27;20009;-79
2022/10/25 04:32:11;;;;;;;33.42;9.15;;;;;;;;;;5306134;27;20004;-78
2022/10/25 04:34:39;;;;;;;28.58;8.95;;;;;;;;;;5304776;27;20055;-79
2022/10/25 04:37:06;;;;;;;22.23;7.65;;;;;;;;;;5305894;27;20048;-80
2022/10/25 04:39:35;;;;;;;27.58;7.12;;;;;;;;;;5304546;27;20020;-79
2022/10/25 04:42:19;;;;;;;28.30;6.70;;;;;;;;;;5304614;27;20056;-78
2022/10/25 04:44:47;;;;;;;25.12;7.25;;;;;;;;;;5305023;27;20004;-78
2022/10/25 04:47:12;;;;;;;27.00;6.93;;;;;;;;;;5284922;27;20346;-79
2022/10/25 04:49:40;;;;;;;24.60;7.15;;;;;;;;;;5304875;27;20001;-78
2022/10/25 04:52:06;;;;;;;23.42;6.75;;;;;;;;;;5305179;27;20062;-78
2022/10/25 04:54:34;;;;;;;24.27;7.18;;;;;;;;;;5285280;27;20394;-79
2022/10/25 04:56:59;;;;;;;22.15;7.57;;;;;;;;;;5304198;27;20005;-79
2022/10/25 04:59:25;;;;;;;;;;;;;;;;;;5305846;27;20329;-79
2022/10/25 05:02:19;;;;;;;23.67;7.85;;;;;;;;;;5304198;27;19934;-79
2022/10/25 05:04:44;;;;;;;20.80;6.45;;;;;;;;;;5294828;27;20027;-79
2022/10/25 05:07:14;;;;;;;19.00;6.10;;;;;;;;;;5326471;27;20322;-79
2022/10/25 05:09:50;;;;;;;22.80;7.18;;;;;;;;;;5327602;27;19989;-79
2022/10/25 05:12:25;;;;;;;17.80;6.53;;;;;;;;;;5327529;27;20370;-79
2022/10/25 05:14:55;;;;;;;28.98;6.85;;;;;;;;;;5327432;27;20005;-78
2022/10/25 05:17:32;;;;;;;20.62;5.65;;;;;;;;;;5326669;27;19997;-78
2022/10/25 05:20:01;;;;;;;23.38;6.87;;;;;;;;;;5327232;27;20121;-80
2022/10/25 05:22:26;;;;;;;22.65;6.62;;;;;;;;;;5306745;27;20020;-80
2022/10/25 05:24:53;;;;;;;15.75;6.07;;;;;;;;;;5325982;27;20012;-80
2022/10/25 05:27:53;;;;;;;18.00;6.45;;;;;;;;;;5325927;27;20038;-80
2022/10/25 05:30:19;;;;;;;19.67;6.90;;;;;;;;;;5302536;27;20409;-80
2022/10/25 05:32:44;;;;;;;21.12;6.55;;;;;;;;;;5326120;27;20005;-80
2022/10/25 05:35:18;;;;;;;17.35;7.07;;;;;;;;;;5306529;27;20001;-80
2022/10/25 05:37:44;;;;;;;15.40;6.97;;;;;;;;;;5326555;27;20009;-80
2022/10/25 05:40:09;;;;;;;22.52;6.45;;;;;;;;;;5326821;26;20031;-79
2022/10/25 05:42:41;;;;;;;16.65;6.55;;;;;;;;;;5326550;27;20017;-79
2022/10/25 05:45:06;;;;;;;18.45;6.95;;;;;;;;;;5306757;27;20005;-78
2022/10/25 05:47:34;;;;;;;22.10;8.02;;;;;;;;;;5327288;27;20028;-78
2022/10/25 05:50:03;;;;;;;24.05;8.00;;;;;;;;;;5307547;27;20314;-78
2022/10/25 05:52:34;;;;;;;24.33;9.15;;;;;;;;;;5327578;27;20363;-79
2022/10/25 05:55:13;;;;;;;20.08;8.68;;;;;;;;;;5326963;27;20355;-78
2022/10/25 05:57:39;;;;;;;24.60;8.98;;;;;;;;;;5306637;27;19997;-78
2022/10/25 06:00:05;;;;;;;23.85;9.25;;;;;;;;;;5325874;27;20342;-79
2022/10/25 06:02:39;;;;;;;31.12;11.93;;;;;;;;;;5325389;27;20013;-78
2022/10/25 06:05:05;;;;;;;23.05;9.27;;;;;;;;;;5304026;27;20013;-78
2022/10/25 06:07:33;;;;;;;26.00;10.57;;;;;;;;;;5304082;27;20378;-78
2022/10/25 06:09:59;;;;;;;23.27;11.38;;;;;;;;;;5303902;27;20062;-78
2022/10/25 06:12:27;;;;;;;20.08;10.68;;;;;;;;;;5304256;27;20360;-78
2022/10/25 06:15:15;;;;;;;19.35;11.00;;;;;;;;;;5304221;27;20005;-78
2022/10/25 06:17:56;;;;;;;20.67;10.98;;;;;;;;;;5304685;27;20058;-78
2022/10/25 06:20:24;;;;;;;21.95;12.35;;;;;;;;;;5304706;27;20101;-78
2022/10/25 06:23:15;;;;;;;24.15;12.10;;;;;;;;;;5303651;27;20017;-78
2022/10/25 06:28:44;;;;;;;25.70;11.82;;;;;;;;;;5215681;27;20013;-79
2022/10/25 06:31:20;;;;;;;18.77;11.27;;;;;;;;;;5288507;27;20005;-76
2022/10/25 06:33:46;;;;;;;23.20;13.02;;;;;;;;;;5304653;27;20068;-78
2022/10/25 06:36:15;;;;;;;;;;;;;;;;;;5305186;27;20379;-78
2022/10/25 06:38:41;;;;;;;35.33;13.62;;;;;;;;;;5304897;27;19935;-79
2022/10/25 06:41:08;;;;;;;;;;;;;;;;;;5285661;27;20009;-79
2022/10/25 06:44:05;;;;;;;;;;;;;;;;;;;;;
2022/10/25 06:46:47;;;;;;;26.48;11.70;;;;;;;;;;5298832;27;20008;-79
2022/10/25 06:49:12;;;;;;;25.75;12.32;;;;;;;;;;5306076;27;20019;-79
2022/10/25 06:51:38;;;;;;;;;;;;;;;;;;5305247;27;20280;-78
2022/10/25 06:54:06;;;;;;;28.95;14.25;;;;;;;;;;5305126;27;19928;-79
2022/10/25 06:56:38;;;;;;;22.83;12.05;;;;;;;;;;5305270;27;20021;-79
2022/10/25 06:59:14;;;;;;;29.20;15.15;;;;;;;;;;5304841;27;20029;-78
2022/10/25 07:01:52;;;;;;;;;;;;;;;;;;;;;
2022/10/25 07:04:18;;;;;;;31.12;14.25;;;;;;;;;;5304582;27;20044;-78
2022/10/25 07:06:48;;;;;;;22.95;12.75;;;;;;;;;;5327044;27;20400;-78
2022/10/25 07:09:14;;;;;;;29.58;13.80;;;;;;;;;;5328069;27;20052;-78
2022/10/25 07:11:40;;;;;;;25.12;12.52;;;;;;;;;;5306885;27;20000;-78
2022/10/25 07:14:11;;;;;;;31.45;13.13;;;;;;;;;;5326850;27;20387;-78
2022/10/25 07:17:07;;;;;;;21.62;12.80;;;;;;;;;;5326718;27;20013;-80
2022/10/25 07:19:39;;;;;;;21.85;12.05;;;;;;;;;;5326513;27;20027;-78
2022/10/25 07:22:18;;;;;;;22.52;13.02;;;;;;;;;;5307225;27;20314;-78
2022/10/25 07:24:44;;;;;;;24.63;12.90;;;;;;;;;;5318515;27;20003;-77
2022/10/25 07:27:12;;;;;;;25.80;13.52;;;;;;;;;;5326982;27;20009;-78
2022/10/25 07:29:40;;;;;;;30.23;13.65;;;;;;;;;;5307043;27;20042;-78
2022/10/25 07:32:09;;;;;;;23.87;14.02;;;;;;;;;;5327467;27;20000;-78
2022/10/25 07:34:40;;;;;;;26.80;13.35;;;;;;;;;;5327496;27;20005;-78
2022/10/25 07:37:06;;;;;;;23.33;13.15;;;;;;;;;;5307139;27;20403;-78
2022/10/25 07:39:37;;;;;;;;;;;;;;;;;;5307233;27;20001;-78
2022/10/25 07:42:02;;;;;;;19.75;12.48;;;;;;;;;;5327223;27;19927;-78
2022/10/25 07:44:42;;;;;;;20.35;10.90;;;;;;;;;;5327361;27;20344;-77
2022/10/25 07:47:07;;;;;;;20.17;11.40;;;;;;;;;;5308882;27;20028;-78
2022/10/25 07:49:35;;;;;;;19.70;11.88;;;;;;;;;;5326927;27;20006;-78
2022/10/25 07:52:06;;;;;;;20.62;10.85;;;;;;;;;;5327462;27;20046;-78
2022/10/25 07:54:34;;;;;;;19.90;10.75;;;;;;;;;;5326568;27;19997;-80
2022/10/25 07:57:10;;;;;;;20.85;11.18;;;;;;;;;;5326445;27;20023;-78
2022/10/25 07:59:35;;;;;;;19.20;10.98;;;;;;;;;;5307575;27;19999;-78
2022/10/25 08:02:01;;;;;;;18.60;10.05;;;;;;;;;;5326412;27;20001;-78
2022/10/25 08:04:33;;;;;;;17.52;10.23;;;;;;;;;;5325489;27;20428;-77
2022/10/25 08:07:01;;;;;;;18.58;9.85;;;;;;;;;;5325804;27;20085;-78
2022/10/25 08:10:18;;;;;;;22.70;11.05;;;;;;;;;;5326422;27;20023;-78
2022/10/25 08:12:51;;;;;;;19.98;11.88;;;;;;;;;;5317208;27;20015;-78
2022/10/25 08:15:17;;;;;;;21.65;12.30;;;;;;;;;;5327853;27;20008;-76
2022/10/25 08:17:48;;;;;;;19.45;12.10;;;;;;;;;;5326760;27;20318;-78
2022/10/25 08:20:15;;;;;;;22.08;11.73;;;;;;;;;;5306455;27;20446;-78
2022/10/25 08:22:56;;;;;;;18.85;11.95;;;;;;;;;;5325835;27;20005;-78
2022/10/25 08:25:45;;;;;;;;;;;;;;;;;;;;;
2022/10/25 08:28:22;;;;;;;23.23;13.00;;;;;;;;;;5327040;27;20011;-80
2022/10/25 08:31:12;;;;;;;22.87;13.20;;;;;;;;;;5327409;27;20439;-80
2022/10/25 08:33:55;;;;;;;23.58;12.60;;;;;;;;;;5327118;27;20434;-79
2022/10/25 08:36:22;;;;;;;17.08;12.18;;;;;;;;;;5326934;27;20418;-80
2022/10/25 08:38:48;;;;;;;24.50;12.52;;;;;;;;;;5326535;26;20061;-79
2022/10/25 08:41:22;;;;;;;21.77;11.95;;;;;;;;;;5326430;27;20020;-79
2022/10/25 08:44:07;;;;;;;21.00;12.27;;;;;;;;;;5325980;27;20027;-77
2022/10/25 08:46:45;;;;;;;23.30;12.15;;;;;;;;;;5326402;27;20014;-77
2022/10/25 08:49:25;;;;;;;26.52;12.43;;;;;;;;;;5306729;27;20302;-77
2022/10/25 08:51:51;;;;;;;20.83;11.52;;;;;;;;;;5327012;27;20264;-77
2022/10/25 08:54:37;;;;;;;23.12;13.15;;;;;;;;;;5326296;27;20000;-77
2022/10/25 08:57:28;;;;;;;22.42;12.05;;;;;;;;;;5326563;27;20382;-78
2022/10/25 09:00:06;;;;;;;19.50;11.48;;;;;;;;;;5325944;27;20000;-78
2022/10/25 09:02:32;;;;;;;22.30;12.18;;;;;;;;;;5326770;27;19989;-78
2022/10/25 09:04:57;;;;;;;24.85;12.35;;;;;;;;;;5325932;27;20460;-77
2022/10/25 09:07:42;;;;;;;24.33;12.95;;;;;;;;;;5306076;27;20005;-78
2022/10/25 09:10:24;;;;;;;18.92;12.10;;;;;;;;;;5306013;27;20076;-76
2022/10/25 09:12:50;;;;;;;17.50;11.68;;;;;;;;;;5327179;27;20012;-77
2022/10/25 09:15:47;;;;;;;21.23;10.73;;;;;;;;;;5326014;27;20001;-77
2022/10/25 09:18:14;;;;;;;12.60;9.82;;;;;;;;;;5316677;27;20012;-77
2022/10/25 09:21:18;;;;;;;;;;;;;;;;;;;;;
2022/10/25 09:24:36;;;;;;;23.15;11.00;;;;;;;;;;5326767;27;20008;-77
2022/10/25 09:27:25;;;;;;;18.58;10.95;;;;;;;;;;5324049;27;20026;-78
2022/10/25 09:30:14;;;;;;;15.88;10.32;;;;;;;;;;5306073;27;20004;-77
2022/10/25 09:36:04;;;;;;;21.95;10.60;;;;;;;;;;5316837;27;20037;-77
2022/10/25 09:38:29;;;;;;;18.25;10.90;;;;;;;;;;5325336;26;20020;-77
2022/10/25 09:41:07;;;;;;;23.02;10.63;;;;;;;;;;5325867;27;20004;-78
2022/10/25 09:44:03;;;;;;;;;;;;;;;;;;;;;
2022/10/25 09:46:36;;;;;;;17.10;9.63;;;;;;;;;;5325524;27;20031;-79
2022/10/25 09:49:32;;;;;;;21.45;10.20;;;;;;;;;;5305873;27;20332;-78
2022/10/25 09:52:29;;;;;;;;;;;;;;;;;;;;;
2022/10/25 09:55:27;;;;;;;20.60;9.98;;;;;;;;;;5236258;27;20022;-79
2022/10/25 09:57:56;;;;;;;19.58;10.57;;;;;;;;;;5218090;27;20006;-78
2022/10/25 10:00:22;;;;;;;17.02;10.00;;;;;;;;;;5326036;27;20045;-79
2022/10/25 10:06:00;;;;;;;21.15;10.32;;;;;;;;;;5270233;27;20017;-79
2022/10/25 10:08:28;;;;;;;19.52;9.70;;;;;;;;;;5326606;27;20001;-78
2022/10/25 10:10:54;;;;;;;19.15;9.18;;;;;;;;;;5327053;27;20011;-78
2022/10/25 10:13:48;;;;;;;15.50;9.35;;;;;;;;;;5307229;27;20008;-78
2022/10/25 10:16:30;;;;;;;19.85;9.52;;;;;;;;;;5327595;27;19993;-78
2022/10/25 10:19:21;;;;;;;20.65;9.57;;;;;;;;;;5327876;27;20366;-79
2022/10/25 10:21:51;;;;;;;18.35;9.13;;;;;;;;;;5328294;27;20001;-78
2022/10/25 10:24:18;;;;;;;18.05;7.47;;;;;;;;;;5327438;27;20043;-79
2022/10/25 10:26:45;;;;;;;21.80;8.02;;;;;;;;;;5307184;27;20016;-79
2022/10/25 10:29:16;;;;;;;13.88;6.85;;;;;;;;;;5327705;27;20000;-79
2022/10/25 10:31:45;;;;;;;24.70;8.15;;;;;;;;;;5327898;27;19989;-79
2022/10/25 10:34:26;;;;;;;19.50;7.50;;;;;;;;;;5307418;27;20046;-79
2022/10/25 10:37:05;;;;;;;18.83;7.28;;;;;;;;;;5327601;27;20001;-78
2022/10/25 10:39:31;;;;;;;13.00;6.65;;;;;;;;;;5326968;26;20017;-79
2022/10/25 10:42:03;;;;;;;14.98;6.82;;;;;;;;;;5307185;27;20011;-79
2022/10/25 10:44:33;;;;;;;17.08;6.20;;;;;;;;;;5307276;27;19996;-79
2022/10/25 10:46:59;;;;;;;17.85;7.28;;;;;;;;;;5326960;27;20032;-79
2022/10/25 10:49:33;;;;;;;16.15;5.78;;;;;;;;;;5327396;27;20048;-79
2022/10/25 10:51:59;;;;;;;14.63;5.50;;;;;;;;;;5327526;27;19999;-79
2022/10/25 10:54:28;;;;;;;13.65;5.53;;;;;;;;;;5326791;27;20001;-77
2022/10/25 10:56:54;;;;;;;15.93;5.47;;;;;;;;;;5328967;27;20014;-79
2022/10/25 10:59:40;;;;;;;15.35;5.03;;;;;;;;;;5327201;27;20008;-79
2022/10/25 11:02:20;;;;;;;11.00;4.22;;;;;;;;;;5328794;27;20036;-79
2022/10/25 11:04:50;;;;;;;15.07;4.90;;;;;;;;;;5307014;27;20031;-79
2022/10/25 11:07:34;;;;;;;11.35;4.68;;;;;;;;;;5327539;27;20030;-79
2022/10/25 11:10:41;;;;;;;12.95;4.70;;;;;;;;;;5305032;27;20020;-79
2022/10/25 11:13:50;;;;;;;;;;;;;;;;;;;;;
2022/10/25 11:16:50;;;;;;;16.30;4.12;;;;;;;;;;5328737;27;20400;-79
2022/10/25 11:19:54;;;;;;;11.23;3.70;;;;;;;;;;5327104;27;20019;-79
2022/10/25 11:25:44;;;;;;;14.70;4.20;;;;;;;;;;5237565;27;19998;-79
2022/10/25 11:28:28;;;;;;;12.48;3.83;;;;;;;;;;5237493;27;20024;-79
2022/10/25 11:31:12;;;;;;;12.20;4.20;;;;;;;;;;5289343;27;20330;-77
2022/10/25 11:33:52;;;;;;;11.52;4.03;;;;;;;;;;5326009;27;20032;-79
2022/10/25 11:39:50;;;;;;;12.27;4.80;;;;;;;;;;5299162;26;20018;-79
2022/10/25 11:42:49;;;;;;;19.62;4.75;;;;;;;;;;5328015;27;19997;-78
2022/10/25 11:48:49;;;;;;;10.82;3.95;;;;;;;;;;5327284;27;20007;-76
2022/10/25 11:57:59;;;;;;;16.77;4.25;;;;;;;;;;5280173;27;19997;-78
2022/10/25 12:18:42;;;;;;;9.93;3.92;;;;;;;;;;5258384;27;20013;-78
2022/10/25 12:21:29;;;;;;;15.05;4.22;;;;;;;;;;5239926;27;20029;-79
2022/10/25 12:27:01;;;;;;;10.70;2.87;;;;;;;;;;5237148;27;19993;-80
2022/10/25 12:29:35;;;;;;;10.80;3.45;;;;;;;;;;5236772;27;20037;-80
2022/10/25 12:35:35;;;;;;;;;;;;;;;;;;;;;
2022/10/25 12:41:51;;;;;;;7.25;2.65;;;;;;;;;;5171554;27;20017;-79
2022/10/25 12:47:42;;;;;;;14.15;3.35;;;;;;;;;;5258435;27;20395;-79
2022/10/25 12:50:27;;;;;;;11.95;3.25;;;;;;;;;;5280495;27;20081;-79
2022/10/25 12:56:19;;;;;;;9.60;3.12;;;;;;;;;;5327594;27;20326;-80
2022/10/25 12:58:56;;;;;;;11.00;2.83;;;;;;;;;;5306580;27;19999;-80
2022/10/25 13:01:41;;;;;;;12.23;3.03;;;;;;;;;;5327020;27;20008;-79
2022/10/25 13:04:09;;;;;;;13.32;3.12;;;;;;;;;;5326816;27;20027;-80
2022/10/25 13:06:48;;;;;;;7.97;2.67;;;;;;;;;;5305139;27;20008;-79
2022/10/25 13:12:16;;;;;;;8.13;2.80;;;;;;;;;;5325732;27;20023;-79
2022/10/25 13:15:11;;;;;;;14.50;3.12;;;;;;;;;;5327137;27;19989;-79
2022/10/25 13:20:49;;;;;;;9.23;3.08;;;;;;;;;;5326357;27;20315;-78
2022/10/25 13:23:33;;;;;;;15.40;2.93;;;;;;;;;;5325852;27;20000;-79
2022/10/25 13:26:03;;;;;;;9.70;3.37;;;;;;;;;;5326247;27;20048;-79
2022/10/25 13:31:33;;;;;;;14.93;3.75;;;;;;;;;;5258296;27;20406;-79
2022/10/25 13:34:36;;;;;;;;;;;;;;;;;;;;;
2022/10/25 13:37:23;;;;;;;11.73;2.87;;;;;;;;;;5326347;27;20023;-79
2022/10/25 13:40:27;;;;;;;8.63;2.75;;;;;;;;;;5326101;26;20008;-79
2022/10/25 13:43:17;;;;;;;11.30;3.33;;;;;;;;;;5326985;27;20001;-79
2022/10/25 13:46:05;;;;;;;13.62;2.53;;;;;;;;;;5328175;27;20017;-80
2022/10/25 13:48:37;;;;;;;13.00;3.28;;;;;;;;;;5329068;27;20038;-80
2022/10/25 13:51:44;;;;;;;7.68;2.70;;;;;;;;;;5328946;27;20321;-79
2022/10/25 13:54:13;;;;;;;14.98;3.00;;;;;;;;;;5326393;27;20060;-79
2022/10/25 14:09:35;;;;;;;9.05;2.30;;;;;;;;;;5174629;27;20015;-80
2022/10/25 14:15:25;;;;;;;9.25;2.60;;;;;;;;;;5283281;27;20008;-80
2022/10/25 14:17:54;;;;;;;10.68;2.65;;;;;;;;;;5288153;27;20359;-80
2022/10/25 14:20:36;;;;;;;8.82;2.90;;;;;;;;;;5306178;27;20373;-80
2022/10/25 14:23:02;;;;;;;12.27;2.95;;;;;;;;;;5306207;27;20017;-80
2022/10/25 14:25:50;;;;;;;14.07;3.50;;;;;;;;;;5311611;27;20647;-80
2022/10/25 14:34:39;;;;;;;;;;;;;;;;;;;;;
2022/10/25 14:49:49;;;;;;;9.43;2.72;;;;;;;;;;5217604;27;20006;-80
2022/10/25 14:52:23;;;;;;;13.48;2.92;;;;;;;;;;5218197;27;19995;-79
2022/10/25 14:58:07;;;;;;;16.30;4.05;;;;;;;;;;5211076;27;20013;-80
2022/10/25 15:03:41;;;;;;;14.00;3.00;;;;;;;;;;5305428;27;20024;-79
2022/10/25 15:06:06;;;;;;;14.07;3.65;;;;;;;;;;5285031;27;19985;-78
2022/10/25 15:08:34;;;;;;;16.87;3.87;;;;;;;;;;5304907;27;20011;-79
2022/10/25 15:13:49;;;;;;;14.07;3.58;;;;;;;;;;5325715;27;20050;-80
2022/10/25 15:16:46;;;;;;;11.23;3.65;;;;;;;;;;5307511;27;20455;-80
2022/10/25 15:19:19;;;;;;;13.73;4.05;;;;;;;;;;5326469;27;20429;-79
2022/10/25 15:21:44;;;;;;;7.85;2.90;;;;;;;;;;5326553;27;20037;-79
2022/10/25 15:24:12;;;;;;;12.20;4.28;;;;;;;;;;5327707;27;20001;-79
2022/10/25 15:26:51;;;;;;;;;;;;;;;;;;;;;
2022/10/25 15:29:35;;;;;;;10.68;3.83;;;;;;;;;;5324016;27;20039;-79
2022/10/25 15:32:15;;;;;;;11.00;4.25;;;;;;;;;;5326939;27;20019;-79
2022/10/25 15:34:42;;;;;;;10.25;3.70;;;;;;;;;;5327477;27;20008;-79
2022/10/25 15:37:14;;;;;;;8.27;3.10;;;;;;;;;;5326836;27;20008;-79
2022/10/25 15:39:43;;;;;;;15.55;3.45;;;;;;;;;;5326595;26;20034;-80
2022/10/25 15:42:22;;;;;;;;;;;;;;;;;;;;;
2022/10/25 15:51:08;;;;;;;14.13;3.85;;;;;;;;;;5327049;27;20030;-79
2022/10/25 15:53:34;;;;;;;10.30;3.78;;;;;;;;;;5327576;27;20026;-79
2022/10/25 16:18:32;;;;;;;10.88;3.95;;;;;;;;;;5079850;28;20057;-79
2022/10/25 16:21:12;;;;;;;10.18;4.47;;;;;;;;;;5126308;27;20010;-79
2022/10/25 16:38:57;;;;;;;14.05;3.37;;;;;;;;;;5105233;28;20122;-80
2022/10/25 16:41:30;;;;;;;11.05;3.97;;;;;;;;;;5148199;27;20006;-79
2022/10/25 16:44:02;;;;;;;10.02;4.43;;;;;;;;;;5234317;27;20005;-79
2022/10/25 16:47:20;;;;;;;12.05;4.15;;;;;;;;;;5304172;27;20372;-79
2022/10/25 16:49:37;;;;;;;11.88;4.30;;;;;;;;;;5298616;27;20043;-80
2022/10/25 16:52:41;;;;;;;10.50;4.93;;;;;;;;;;5303702;27;20027;-79
2022/10/25 16:58:30;;;;;;;12.65;5.10;;;;;;;;;;5194261;27;20033;-79
2022/10/25 17:01:14;;;;;;;11.85;5.20;;;;;;;;;;5193806;27;20011;-79
2022/10/25 17:16:37;;;;;;;;;;;;;;;;;;;;;
2022/10/25 17:29:03;;;;;;;16.80;5.68;;;;;;;;;;5152466;27;20455;-78
2022/10/25 17:34:44;;;;;;;17.85;6.47;;;;;;;;;;5152758;27;20026;-79
2022/10/25 17:40:51;;;;;;;17.08;6.50;;;;;;;;;;4990645;28;20158;-79
2022/10/25 17:43:50;;;;;;;23.20;8.13;;;;;;;;;;5077139;28;20007;-79
2022/10/25 18:08:35;;;;;;;12.27;8.77;;;;;;;;;;4991388;28;20014;-79
2022/10/25 18:17:22;;;;;;;;;;;;;;;;;;;;;
2022/10/25 18:25:53;;;;;;;13.18;9.32;;;;;;;;;;5194288;27;20009;-79
2022/10/25 18:28:18;;;;;;;19.65;10.98;;;;;;;;;;5193636;27;20038;-79
2022/10/25 18:30:46;;;;;;;;;;;;;;;;;;5233298;27;20004;-79
2022/10/25 18:33:54;;;;;;;;;;;;;;;;;;;;;
2022/10/25 18:36:21;;;;;;;18.30;10.85;;;;;;;;;;5326952;27;20017;-78
2022/10/25 18:38:59;;;;;;;23.85;10.00;;;;;;;;;;5327275;26;20002;-79
2022/10/25 18:41:28;;;;;;;20.17;10.52;;;;;;;;;;5328212;27;20011;-79
2022/10/25 18:43:54;;;;;;;16.58;10.38;;;;;;;;;;5307118;27;20055;-79
2022/10/25 18:46:29;;;;;;;;;;;;;;;;;;5307007;27;20447;-79
2022/10/25 18:49:03;;;;;;;25.42;12.13;;;;;;;;;;5327005;27;19954;-79
2022/10/25 18:51:39;;;;;;;;;;;;;;;;;;;;;
2022/10/25 18:57:30;;;;;;;21.80;11.73;;;;;;;;;;5222348;27;20036;-79
2022/10/25 19:03:06;;;;;;;15.10;11.50;;;;;;;;;;5195345;27;20058;-79
2022/10/25 19:06:25;;;;;;;;;;;;;;;;;;;;;
2022/10/25 19:11:48;;;;;;;16.60;10.15;;;;;;;;;;5216298;27;20050;-79
2022/10/25 19:14:19;;;;;;;17.87;10.73;;;;;;;;;;5248549;27;20011;-79
2022/10/25 19:17:19;;;;;;;20.25;10.73;;;;;;;;;;5327076;27;20013;-79
2022/10/25 19:20:07;;;;;;;19.12;10.45;;;;;;;;;;5327869;27;20010;-79
2022/10/25 19:26:25;;;;;;;;;;;;;;;;;;;;;
2022/10/25 19:50:37;;;;;;;18.67;8.68;;;;;;;;;;5165316;27;20046;-79
2022/10/25 19:53:03;;;;;;;18.50;10.32;;;;;;;;;;5215776;27;20003;-79
2022/10/25 19:55:28;;;;;;;;;;;;;;;;;;5216111;27;20034;-78
2022/10/25 19:57:54;;;;;;;15.90;8.75;;;;;;;;;;5258239;27;19938;-78
2022/10/25 20:00:19;;;;;;;;;;;;;;;;;;5326878;27;20361;-79
2022/10/25 20:26:42;;;;;;;;;;;;;;;;;;;;;
2022/10/25 20:29:27;;;;;;;;;;;;;;;;;;;;;
2022/10/25 20:47:50;;;;;;;15.18;9.05;;;;;;;;;;5216175;27;20001;-79
2022/10/25 20:50:49;;;;;;;;;;;;;;;;;;;;;
2022/10/25 21:11:28;;;;;;;13.82;9.27;;;;;;;;;;5173692;27;20002;-79
2022/10/25 21:17:24;;;;;;;16.55;9.27;;;;;;;;;;5081367;28;20012;-79
2022/10/25 21:28:50;;;;;;;;;;;;;;;;;;;;;
2022/10/25 21:53:35;;;;;;;16.60;9.30;;;;;;;;;;5215131;27;20009;-78
2022/10/25 22:08:01;;;;;;;;;;;;;;;;;;;;;
2022/10/25 22:35:18;;;;;;;;;;;;;;;;;;;;;
2022/10/25 22:38:05;;;;;;;15.60;10.05;;;;;;;;;;5094758;28;20035;-78
2022/10/25 22:40:30;;;;;;;;;;;;;;;;;;5221318;27;20014;-78
2022/10/25 22:43:04;;;;;;;16.90;10.77;;;;;;;;;;5285711;27;20278;-78
2022/10/25 22:48:58;;;;;;;17.08;10.35;;;;;;;;;;5305817;27;20040;-78
2022/10/25 22:54:31;;;;;;;16.23;9.30;;;;;;;;;;5216681;27;20005;-78
2022/10/25 23:00:07;;;;;;;17.20;9.45;;;;;;;;;;5258881;27;20020;-78
2022/10/25 23:02:44;;;;;;;15.68;9.73;;;;;;;;;;5305731;27;20019;-78
2022/10/25 23:08:34;;;;;;;15.13;8.32;;;;;;;;;;5305214;27;20027;-78
2022/10/25 23:11:53;;;;;;;;;;;;;;;;;;;;;
2022/10/25 23:14:29;;;;;;;;;;;;;;;;;;;;;
2022/10/25 23:17:46;;;;;;;;;;;;;;;;;;;;;
2022/10/25 23:36:19;;;;;;;;;;;;;;;;;;;;;
2022/10/25 23:39:55;;;;;;;13.07;8.60;;;;;;;;;;5131901;27;20061;-79
2022/10/25 23:42:09;;;;;;;14.43;8.23;;;;;;;;;;5131344;28;20011;-78
